sensor_id;sensor_type;location;lat;lon;timestamp;temperature;humidity
33564;DHT22;19894;48.452;11.494;2023-04-15T00:00:15;18.70;42.40
33564;DHT22;19894;48.452;11.494;2023-04-15T00:02:41;18.70;42.40
33564;DHT22;19894;48.452;11.494;2023-04-15T00:05:07;18.70;42.30
33564;DHT22;19894;48.452;11.494;2023-04-15T00:07:32;18.70;42.30
33564;DHT22;19894;48.452;11.494;2023-04-15T00:09:58;18.70;42.30
33564;DHT22;19894;48.452;11.494;2023-04-15T00:12:24;18.70;42.20
33564;DHT22;19894;48.452;11.494;2023-04-15T00:14:50;18.70;42.20
33564;DHT22;19894;48.452;11.494;2023-04-15T00:17:16;18.70;42.20
33564;DHT22;19894;48.452;11.494;2023-04-15T00:19:42;18.70;42.30
33564;DHT22;19894;48.452;11.494;2023-04-15T00:22:10;18.70;42.20
33564;DHT22;19894;48.452;11.494;2023-04-15T00:24:36;18.70;42.20
33564;DHT22;19894;48.452;11.494;2023-04-15T00:27:02;18.70;42.10
33564;DHT22;19894;48.452;11.494;2023-04-15T00:29:28;18.70;42.10
33564;DHT22;19894;48.452;11.494;2023-04-15T00:31:55;18.70;42.00
33564;DHT22;19894;48.452;11.494;2023-04-15T00:34:21;18.80;42.10
33564;DHT22;19894;48.452;11.494;2023-04-15T00:36:47;18.70;42.00
33564;DHT22;19894;48.452;11.494;2023-04-15T00:39:13;18.70;41.90
33564;DHT22;19894;48.452;11.494;2023-04-15T00:41:39;18.70;41.90
33564;DHT22;19894;48.452;11.494;2023-04-15T00:44:07;18.70;41.90
33564;DHT22;19894;48.452;11.494;2023-04-15T00:46:37;18.70;41.90
33564;DHT22;19894;48.452;11.494;2023-04-15T00:49:04;18.70;41.90
33564;DHT22;19894;48.452;11.494;2023-04-15T00:51:30;18.70;41.90
33564;DHT22;19894;48.452;11.494;2023-04-15T00:53:58;18.70;41.90
33564;DHT22;19894;48.452;11.494;2023-04-15T00:56:26;18.70;41.90
33564;DHT22;19894;48.452;11.494;2023-04-15T00:58:53;18.70;41.90
33564;DHT22;19894;48.452;11.494;2023-04-15T01:01:23;18.70;41.90
33564;DHT22;19894;48.452;11.494;2023-04-15T01:03:49;18.70;41.90
33564;DHT22;19894;48.452;11.494;2023-04-15T01:06:16;18.70;41.90
33564;DHT22;19894;48.452;11.494;2023-04-15T01:08:42;18.70;41.90
33564;DHT22;19894;48.452;11.494;2023-04-15T01:11:08;18.70;42.00
33564;DHT22;19894;48.452;11.494;2023-04-15T01:13:35;18.70;41.90
33564;DHT22;19894;48.452;11.494;2023-04-15T01:16:01;18.60;41.90
33564;DHT22;19894;48.452;11.494;2023-04-15T01:18:27;18.70;41.90
33564;DHT22;19894;48.452;11.494;2023-04-15T01:20:53;18.60;41.80
33564;DHT22;19894;48.452;11.494;2023-04-15T01:23:20;18.60;41.90
33564;DHT22;19894;48.452;11.494;2023-04-15T01:25:48;18.70;41.90
33564;DHT22;19894;48.452;11.494;2023-04-15T01:28:14;18.70;41.90
33564;DHT22;19894;48.452;11.494;2023-04-15T01:30:40;18.70;41.90
33564;DHT22;19894;48.452;11.494;2023-04-15T01:33:06;18.70;41.80
33564;DHT22;19894;48.452;11.494;2023-04-15T01:35:32;18.70;41.80
33564;DHT22;19894;48.452;11.494;2023-04-15T01:38:05;18.70;41.80
33564;DHT22;19894;48.452;11.494;2023-04-15T01:40:32;18.70;41.80
33564;DHT22;19894;48.452;11.494;2023-04-15T01:42:58;18.70;41.70
33564;DHT22;19894;48.452;11.494;2023-04-15T01:45:24;18.70;41.70
33564;DHT22;19894;48.452;11.494;2023-04-15T01:47:49;18.70;41.70
33564;DHT22;19894;48.452;11.494;2023-04-15T01:50:15;18.70;41.70
33564;DHT22;19894;48.452;11.494;2023-04-15T01:52:40;18.70;41.70
33564;DHT22;19894;48.452;11.494;2023-04-15T01:55:07;18.70;41.70
33564;DHT22;19894;48.452;11.494;2023-04-15T01:57:33;18.70;41.70
33564;DHT22;19894;48.452;11.494;2023-04-15T01:59:59;18.70;41.70
33564;DHT22;19894;48.452;11.494;2023-04-15T02:02:25;18.70;41.70
33564;DHT22;19894;48.452;11.494;2023-04-15T02:04:50;18.70;41.70
33564;DHT22;19894;48.452;11.494;2023-04-15T02:07:16;18.70;41.70
33564;DHT22;19894;48.452;11.494;2023-04-15T02:09:42;18.70;41.70
33564;DHT22;19894;48.452;11.494;2023-04-15T02:12:08;18.60;41.70
33564;DHT22;19894;48.452;11.494;2023-04-15T02:14:34;18.70;41.70
33564;DHT22;19894;48.452;11.494;2023-04-15T02:16:59;18.70;41.70
33564;DHT22;19894;48.452;11.494;2023-04-15T02:19:32;18.70;41.80
33564;DHT22;19894;48.452;11.494;2023-04-15T02:21:58;18.70;41.60
33564;DHT22;19894;48.452;11.494;2023-04-15T02:24:24;18.60;41.70
33564;DHT22;19894;48.452;11.494;2023-04-15T02:26:49;18.70;41.70
33564;DHT22;19894;48.452;11.494;2023-04-15T02:29:15;18.70;41.70
33564;DHT22;19894;48.452;11.494;2023-04-15T02:31:40;18.70;41.70
33564;DHT22;19894;48.452;11.494;2023-04-15T02:34:06;18.70;41.70
33564;DHT22;19894;48.452;11.494;2023-04-15T02:36:32;18.70;41.70
33564;DHT22;19894;48.452;11.494;2023-04-15T02:38:59;18.70;41.60
33564;DHT22;19894;48.452;11.494;2023-04-15T02:41:25;18.70;41.60
33564;DHT22;19894;48.452;11.494;2023-04-15T02:43:53;18.70;41.60
33564;DHT22;19894;48.452;11.494;2023-04-15T02:46:18;18.70;41.60
33564;DHT22;19894;48.452;11.494;2023-04-15T02:48:44;18.70;41.60
33564;DHT22;19894;48.452;11.494;2023-04-15T02:53:39;18.70;41.50
33564;DHT22;19894;48.452;11.494;2023-04-15T02:56:06;18.70;41.50
33564;DHT22;19894;48.452;11.494;2023-04-15T02:58:33;18.70;41.50
33564;DHT22;19894;48.452;11.494;2023-04-15T03:00:59;18.70;41.50
33564;DHT22;19894;48.452;11.494;2023-04-15T03:03:25;18.70;41.50
33564;DHT22;19894;48.452;11.494;2023-04-15T03:05:52;18.70;41.60
33564;DHT22;19894;48.452;11.494;2023-04-15T03:08:17;18.70;41.60
33564;DHT22;19894;48.452;11.494;2023-04-15T03:10:43;18.70;41.60
33564;DHT22;19894;48.452;11.494;2023-04-15T03:13:08;18.70;41.60
33564;DHT22;19894;48.452;11.494;2023-04-15T03:15:34;18.70;41.60
33564;DHT22;19894;48.452;11.494;2023-04-15T03:18:00;18.70;41.60
33564;DHT22;19894;48.452;11.494;2023-04-15T03:20:26;18.70;41.60
33564;DHT22;19894;48.452;11.494;2023-04-15T03:22:51;18.60;41.50
33564;DHT22;19894;48.452;11.494;2023-04-15T03:25:17;18.60;41.50
33564;DHT22;19894;48.452;11.494;2023-04-15T03:27:43;18.60;41.50
33564;DHT22;19894;48.452;11.494;2023-04-15T03:30:08;18.60;41.40
33564;DHT22;19894;48.452;11.494;2023-04-15T03:32:34;18.70;41.50
33564;DHT22;19894;48.452;11.494;2023-04-15T03:35:00;18.70;41.50
33564;DHT22;19894;48.452;11.494;2023-04-15T03:37:25;18.70;41.50
33564;DHT22;19894;48.452;11.494;2023-04-15T03:39:51;18.70;41.50
33564;DHT22;19894;48.452;11.494;2023-04-15T03:42:17;18.70;41.50
33564;DHT22;19894;48.452;11.494;2023-04-15T03:44:42;18.70;41.50
33564;DHT22;19894;48.452;11.494;2023-04-15T03:47:08;18.70;41.40
33564;DHT22;19894;48.452;11.494;2023-04-15T03:49:34;18.70;41.50
33564;DHT22;19894;48.452;11.494;2023-04-15T03:52:00;18.70;41.40
33564;DHT22;19894;48.452;11.494;2023-04-15T03:54:25;18.70;41.40
33564;DHT22;19894;48.452;11.494;2023-04-15T03:56:51;18.70;41.40
33564;DHT22;19894;48.452;11.494;2023-04-15T03:59:16;18.70;41.40
33564;DHT22;19894;48.452;11.494;2023-04-15T04:01:42;18.70;41.40
33564;DHT22;19894;48.452;11.494;2023-04-15T04:04:08;18.70;41.40
33564;DHT22;19894;48.452;11.494;2023-04-15T04:06:33;18.70;41.40
33564;DHT22;19894;48.452;11.494;2023-04-15T04:08:59;18.70;41.40
33564;DHT22;19894;48.452;11.494;2023-04-15T04:11:25;18.70;41.40
33564;DHT22;19894;48.452;11.494;2023-04-15T04:13:52;18.60;41.40
33564;DHT22;19894;48.452;11.494;2023-04-15T04:16:18;18.70;41.40
33564;DHT22;19894;48.452;11.494;2023-04-15T04:18:44;18.60;41.30
33564;DHT22;19894;48.452;11.494;2023-04-15T04:21:09;18.60;41.40
33564;DHT22;19894;48.452;11.494;2023-04-15T04:23:35;18.60;41.40
33564;DHT22;19894;48.452;11.494;2023-04-15T04:26:01;18.60;41.30
33564;DHT22;19894;48.452;11.494;2023-04-15T04:28:27;18.60;41.30
33564;DHT22;19894;48.452;11.494;2023-04-15T04:30:52;18.60;41.30
33564;DHT22;19894;48.452;11.494;2023-04-15T04:33:18;18.60;41.30
33564;DHT22;19894;48.452;11.494;2023-04-15T04:35:44;18.70;41.30
33564;DHT22;19894;48.452;11.494;2023-04-15T04:38:09;18.60;41.20
33564;DHT22;19894;48.452;11.494;2023-04-15T04:40:35;18.60;41.30
33564;DHT22;19894;48.452;11.494;2023-04-15T04:43:01;18.70;41.30
33564;DHT22;19894;48.452;11.494;2023-04-15T04:45:27;18.60;41.20
33564;DHT22;19894;48.452;11.494;2023-04-15T04:47:52;18.70;41.20
33564;DHT22;19894;48.452;11.494;2023-04-15T04:50:18;18.70;41.20
33564;DHT22;19894;48.452;11.494;2023-04-15T04:52:43;18.70;41.20
33564;DHT22;19894;48.452;11.494;2023-04-15T04:55:09;18.70;41.20
33564;DHT22;19894;48.452;11.494;2023-04-15T04:57:34;18.70;41.10
33564;DHT22;19894;48.452;11.494;2023-04-15T05:00:01;18.70;41.20
33564;DHT22;19894;48.452;11.494;2023-04-15T05:02:27;18.70;41.20
33564;DHT22;19894;48.452;11.494;2023-04-15T05:04:53;18.70;41.20
33564;DHT22;19894;48.452;11.494;2023-04-15T05:07:19;18.70;41.20
33564;DHT22;19894;48.452;11.494;2023-04-15T05:09:45;18.70;41.10
33564;DHT22;19894;48.452;11.494;2023-04-15T05:12:11;18.70;41.20
33564;DHT22;19894;48.452;11.494;2023-04-15T05:14:40;18.70;41.10
33564;DHT22;19894;48.452;11.494;2023-04-15T05:17:07;18.60;41.10
33564;DHT22;19894;48.452;11.494;2023-04-15T05:19:32;18.60;41.10
33564;DHT22;19894;48.452;11.494;2023-04-15T05:21:58;18.70;41.20
33564;DHT22;19894;48.452;11.494;2023-04-15T05:24:24;18.60;41.10
33564;DHT22;19894;48.452;11.494;2023-04-15T05:26:49;18.60;41.10
33564;DHT22;19894;48.452;11.494;2023-04-15T05:29:15;18.60;41.10
33564;DHT22;19894;48.452;11.494;2023-04-15T05:31:41;18.60;41.00
33564;DHT22;19894;48.452;11.494;2023-04-15T05:34:07;18.60;41.00
33564;DHT22;19894;48.452;11.494;2023-04-15T05:36:33;18.60;41.00
33564;DHT22;19894;48.452;11.494;2023-04-15T05:38:58;18.60;41.10
33564;DHT22;19894;48.452;11.494;2023-04-15T05:41:24;18.60;41.00
33564;DHT22;19894;48.452;11.494;2023-04-15T05:43:49;18.60;41.00
33564;DHT22;19894;48.452;11.494;2023-04-15T05:46:15;18.60;41.00
33564;DHT22;19894;48.452;11.494;2023-04-15T05:48:41;18.60;41.00
33564;DHT22;19894;48.452;11.494;2023-04-15T05:51:07;18.60;40.90
33564;DHT22;19894;48.452;11.494;2023-04-15T05:53:32;18.70;41.00
33564;DHT22;19894;48.452;11.494;2023-04-15T05:55:58;18.70;41.00
33564;DHT22;19894;48.452;11.494;2023-04-15T05:58:23;18.70;41.00
33564;DHT22;19894;48.452;11.494;2023-04-15T06:00:49;18.70;41.00
33564;DHT22;19894;48.452;11.494;2023-04-15T06:03:15;18.70;41.00
33564;DHT22;19894;48.452;11.494;2023-04-15T06:05:41;18.70;41.00
33564;DHT22;19894;48.452;11.494;2023-04-15T06:08:06;18.70;41.00
33564;DHT22;19894;48.452;11.494;2023-04-15T06:10:34;18.70;41.00
33564;DHT22;19894;48.452;11.494;2023-04-15T06:13:04;18.70;41.10
33564;DHT22;19894;48.452;11.494;2023-04-15T06:15:30;18.60;41.00
33564;DHT22;19894;48.452;11.494;2023-04-15T06:17:56;18.70;41.10
33564;DHT22;19894;48.452;11.494;2023-04-15T06:20:21;18.60;41.10
33564;DHT22;19894;48.452;11.494;2023-04-15T06:22:48;18.60;41.10
33564;DHT22;19894;48.452;11.494;2023-04-15T06:25:14;18.70;41.10
33564;DHT22;19894;48.452;11.494;2023-04-15T06:27:40;18.60;41.10
33564;DHT22;19894;48.452;11.494;2023-04-15T06:30:06;18.60;41.10
33564;DHT22;19894;48.452;11.494;2023-04-15T06:32:32;18.60;41.10
33564;DHT22;19894;48.452;11.494;2023-04-15T06:34:57;18.60;41.10
33564;DHT22;19894;48.452;11.494;2023-04-15T06:37:23;18.60;41.10
33564;DHT22;19894;48.452;11.494;2023-04-15T06:39:49;18.60;41.10
33564;DHT22;19894;48.452;11.494;2023-04-15T06:42:14;18.60;41.20
33564;DHT22;19894;48.452;11.494;2023-04-15T06:44:40;18.70;41.20
33564;DHT22;19894;48.452;11.494;2023-04-15T06:47:06;18.60;41.20
33564;DHT22;19894;48.452;11.494;2023-04-15T06:49:32;18.60;41.20
33564;DHT22;19894;48.452;11.494;2023-04-15T06:51:58;18.70;41.30
33564;DHT22;19894;48.452;11.494;2023-04-15T06:54:25;18.70;41.30
33564;DHT22;19894;48.452;11.494;2023-04-15T06:56:51;18.60;41.20
33564;DHT22;19894;48.452;11.494;2023-04-15T06:59:17;18.70;41.30
33564;DHT22;19894;48.452;11.494;2023-04-15T07:01:42;18.70;41.30
33564;DHT22;19894;48.452;11.494;2023-04-15T07:04:08;18.70;41.30
33564;DHT22;19894;48.452;11.494;2023-04-15T07:06:33;18.70;41.30
33564;DHT22;19894;48.452;11.494;2023-04-15T07:09:00;18.70;41.30
33564;DHT22;19894;48.452;11.494;2023-04-15T07:11:26;18.70;41.30
33564;DHT22;19894;48.452;11.494;2023-04-15T07:13:51;18.70;41.30
33564;DHT22;19894;48.452;11.494;2023-04-15T07:16:17;18.70;41.40
33564;DHT22;19894;48.452;11.494;2023-04-15T07:18:43;18.70;41.40
33564;DHT22;19894;48.452;11.494;2023-04-15T07:21:09;18.70;41.40
33564;DHT22;19894;48.452;11.494;2023-04-15T07:23:34;18.70;41.30
33564;DHT22;19894;48.452;11.494;2023-04-15T07:26:00;18.70;41.40
33564;DHT22;19894;48.452;11.494;2023-04-15T07:28:26;18.70;41.40
33564;DHT22;19894;48.452;11.494;2023-04-15T07:30:52;18.60;41.30
33564;DHT22;19894;48.452;11.494;2023-04-15T07:33:17;18.70;41.40
33564;DHT22;19894;48.452;11.494;2023-04-15T07:35:43;18.70;41.40
33564;DHT22;19894;48.452;11.494;2023-04-15T07:38:09;18.60;41.30
33564;DHT22;19894;48.452;11.494;2023-04-15T07:40:37;18.60;41.40
33564;DHT22;19894;48.452;11.494;2023-04-15T07:43:04;18.60;41.30
33564;DHT22;19894;48.452;11.494;2023-04-15T07:45:30;18.60;41.40
33564;DHT22;19894;48.452;11.494;2023-04-15T07:47:56;18.60;41.40
33564;DHT22;19894;48.452;11.494;2023-04-15T07:50:22;18.60;41.40
33564;DHT22;19894;48.452;11.494;2023-04-15T07:52:49;18.60;41.50
33564;DHT22;19894;48.452;11.494;2023-04-15T07:55:16;18.70;42.10
33564;DHT22;19894;48.452;11.494;2023-04-15T07:57:44;18.60;41.50
33564;DHT22;19894;48.452;11.494;2023-04-15T08:00:12;18.70;41.50
33564;DHT22;19894;48.452;11.494;2023-04-15T08:02:37;18.70;41.50
33564;DHT22;19894;48.452;11.494;2023-04-15T08:05:03;18.70;41.60
33564;DHT22;19894;48.452;11.494;2023-04-15T08:07:29;18.70;41.60
33564;DHT22;19894;48.452;11.494;2023-04-15T08:09:55;18.70;41.60
33564;DHT22;19894;48.452;11.494;2023-04-15T08:12:21;18.70;41.50
33564;DHT22;19894;48.452;11.494;2023-04-15T08:14:47;18.70;41.50
33564;DHT22;19894;48.452;11.494;2023-04-15T08:17:12;18.70;41.40
33564;DHT22;19894;48.452;11.494;2023-04-15T08:19:38;18.70;41.40
33564;DHT22;19894;48.452;11.494;2023-04-15T08:22:04;18.70;41.50
33564;DHT22;19894;48.452;11.494;2023-04-15T08:24:30;18.70;41.50
33564;DHT22;19894;48.452;11.494;2023-04-15T08:26:56;18.70;41.50
33564;DHT22;19894;48.452;11.494;2023-04-15T08:29:22;18.70;41.40
33564;DHT22;19894;48.452;11.494;2023-04-15T08:31:47;18.70;41.50
33564;DHT22;19894;48.452;11.494;2023-04-15T08:34:13;18.60;41.40
33564;DHT22;19894;48.452;11.494;2023-04-15T08:36:39;18.70;41.50
33564;DHT22;19894;48.452;11.494;2023-04-15T08:39:05;18.60;41.40
33564;DHT22;19894;48.452;11.494;2023-04-15T08:41:45;18.70;41.50
33564;DHT22;19894;48.452;11.494;2023-04-15T08:44:13;18.60;41.50
33564;DHT22;19894;48.452;11.494;2023-04-15T08:46:40;18.60;41.40
33564;DHT22;19894;48.452;11.494;2023-04-15T08:49:09;18.70;41.50
33564;DHT22;19894;48.452;11.494;2023-04-15T08:51:34;18.60;41.50
33564;DHT22;19894;48.452;11.494;2023-04-15T08:54:01;18.60;41.50
33564;DHT22;19894;48.452;11.494;2023-04-15T08:56:27;18.60;41.50
33564;DHT22;19894;48.452;11.494;2023-04-15T08:58:56;18.60;41.50
33564;DHT22;19894;48.452;11.494;2023-04-15T09:01:22;18.70;41.60
33564;DHT22;19894;48.452;11.494;2023-04-15T09:03:48;18.70;41.60
33564;DHT22;19894;48.452;11.494;2023-04-15T09:06:16;18.70;41.60
33564;DHT22;19894;48.452;11.494;2023-04-15T09:08:42;18.70;41.60
33564;DHT22;19894;48.452;11.494;2023-04-15T09:11:07;18.70;41.70
33564;DHT22;19894;48.452;11.494;2023-04-15T09:13:33;18.70;41.70
33564;DHT22;19894;48.452;11.494;2023-04-15T09:16:01;18.70;41.60
33564;DHT22;19894;48.452;11.494;2023-04-15T09:18:30;18.70;41.60
33564;DHT22;19894;48.452;11.494;2023-04-15T09:21:12;18.70;41.50
33564;DHT22;19894;48.452;11.494;2023-04-15T09:23:40;18.70;41.60
33564;DHT22;19894;48.452;11.494;2023-04-15T09:26:06;18.70;41.60
33564;DHT22;19894;48.452;11.494;2023-04-15T09:28:31;18.70;41.60
33564;DHT22;19894;48.452;11.494;2023-04-15T09:30:58;18.70;41.70
33564;DHT22;19894;48.452;11.494;2023-04-15T09:33:25;18.70;41.60
33564;DHT22;19894;48.452;11.494;2023-04-15T09:36:04;18.70;41.70
33564;DHT22;19894;48.452;11.494;2023-04-15T09:38:30;18.60;41.60
33564;DHT22;19894;48.452;11.494;2023-04-15T09:40:57;18.70;41.70
33564;DHT22;19894;48.452;11.494;2023-04-15T09:43:39;18.60;41.60
33564;DHT22;19894;48.452;11.494;2023-04-15T09:46:05;18.60;41.70
33564;DHT22;19894;48.452;11.494;2023-04-15T09:48:31;18.60;41.70
33564;DHT22;19894;48.452;11.494;2023-04-15T09:51:00;18.70;41.90
33564;DHT22;19894;48.452;11.494;2023-04-15T09:53:26;18.60;41.80
33564;DHT22;19894;48.452;11.494;2023-04-15T09:55:59;18.60;41.90
33564;DHT22;19894;48.452;11.494;2023-04-15T09:58:32;18.60;42.00
33564;DHT22;19894;48.452;11.494;2023-04-15T10:01:01;18.60;42.00
33564;DHT22;19894;48.452;11.494;2023-04-15T10:03:29;18.60;42.00
33564;DHT22;19894;48.452;11.494;2023-04-15T10:05:57;18.60;41.90
33564;DHT22;19894;48.452;11.494;2023-04-15T10:08:27;18.70;42.00
33564;DHT22;19894;48.452;11.494;2023-04-15T10:10:53;18.70;41.90
33564;DHT22;19894;48.452;11.494;2023-04-15T10:13:24;18.70;41.90
33564;DHT22;19894;48.452;11.494;2023-04-15T10:16:06;18.70;41.90
33564;DHT22;19894;48.452;11.494;2023-04-15T10:18:34;18.70;41.90
33564;DHT22;19894;48.452;11.494;2023-04-15T10:21:02;18.70;41.80
33564;DHT22;19894;48.452;11.494;2023-04-15T10:23:30;18.70;41.70
33564;DHT22;19894;48.452;11.494;2023-04-15T10:25:57;18.70;41.70
33564;DHT22;19894;48.452;11.494;2023-04-15T10:28:23;18.70;41.70
33564;DHT22;19894;48.452;11.494;2023-04-15T10:30:51;18.70;41.70
33564;DHT22;19894;48.452;11.494;2023-04-15T10:33:20;18.70;41.70
33564;DHT22;19894;48.452;11.494;2023-04-15T10:35:47;18.70;41.70
33564;DHT22;19894;48.452;11.494;2023-04-15T10:38:41;18.70;41.70
33564;DHT22;19894;48.452;11.494;2023-04-15T10:43:46;18.60;41.60
33564;DHT22;19894;48.452;11.494;2023-04-15T10:46:12;18.60;41.60
33564;DHT22;19894;48.452;11.494;2023-04-15T10:48:46;18.60;41.60
33564;DHT22;19894;48.452;11.494;2023-04-15T10:51:13;18.60;41.60
33564;DHT22;19894;48.452;11.494;2023-04-15T10:53:41;18.60;41.60
33564;DHT22;19894;48.452;11.494;2023-04-15T10:56:07;18.70;41.70
33564;DHT22;19894;48.452;11.494;2023-04-15T10:58:42;18.60;41.70
33564;DHT22;19894;48.452;11.494;2023-04-15T11:01:08;18.60;41.70
33564;DHT22;19894;48.452;11.494;2023-04-15T11:03:38;18.60;41.70
33564;DHT22;19894;48.452;11.494;2023-04-15T11:06:05;18.70;41.70
33564;DHT22;19894;48.452;11.494;2023-04-15T11:08:52;18.70;41.70
33564;DHT22;19894;48.452;11.494;2023-04-15T11:11:18;18.70;41.70
33564;DHT22;19894;48.452;11.494;2023-04-15T11:13:49;18.70;41.70
33564;DHT22;19894;48.452;11.494;2023-04-15T11:16:15;18.70;41.70
33564;DHT22;19894;48.452;11.494;2023-04-15T11:18:40;18.70;41.70
33564;DHT22;19894;48.452;11.494;2023-04-15T11:21:07;18.70;41.70
33564;DHT22;19894;48.452;11.494;2023-04-15T11:23:37;18.70;41.70
33564;DHT22;19894;48.452;11.494;2023-04-15T11:26:05;18.70;41.70
33564;DHT22;19894;48.452;11.494;2023-04-15T11:28:34;18.70;41.70
33564;DHT22;19894;48.452;11.494;2023-04-15T11:31:08;18.70;41.70
33564;DHT22;19894;48.452;11.494;2023-04-15T11:33:35;18.70;41.60
33564;DHT22;19894;48.452;11.494;2023-04-15T11:36:01;18.70;41.70
33564;DHT22;19894;48.452;11.494;2023-04-15T11:38:28;18.70;41.70
33564;DHT22;19894;48.452;11.494;2023-04-15T11:40:55;18.70;41.70
33564;DHT22;19894;48.452;11.494;2023-04-15T11:43:22;18.70;41.60
33564;DHT22;19894;48.452;11.494;2023-04-15T11:45:54;18.70;41.70
33564;DHT22;19894;48.452;11.494;2023-04-15T11:48:26;18.60;41.60
33564;DHT22;19894;48.452;11.494;2023-04-15T11:51:00;18.60;41.60
33564;DHT22;19894;48.452;11.494;2023-04-15T11:53:55;18.60;41.60
33564;DHT22;19894;48.452;11.494;2023-04-15T11:56:23;18.70;41.70
33564;DHT22;19894;48.452;11.494;2023-04-15T11:58:57;18.60;41.70
33564;DHT22;19894;48.452;11.494;2023-04-15T12:01:37;18.60;41.70
33564;DHT22;19894;48.452;11.494;2023-04-15T12:04:15;18.70;41.80
33564;DHT22;19894;48.452;11.494;2023-04-15T12:06:43;18.60;41.80
33564;DHT22;19894;48.452;11.494;2023-04-15T12:09:13;18.70;41.80
33564;DHT22;19894;48.452;11.494;2023-04-15T12:14:30;18.70;41.80
33564;DHT22;19894;48.452;11.494;2023-04-15T12:17:00;18.70;41.80
33564;DHT22;19894;48.452;11.494;2023-04-15T12:19:38;18.70;41.80
33564;DHT22;19894;48.452;11.494;2023-04-15T12:22:09;18.70;41.70
33564;DHT22;19894;48.452;11.494;2023-04-15T12:24:36;18.70;41.70
33564;DHT22;19894;48.452;11.494;2023-04-15T12:27:09;18.70;41.70
33564;DHT22;19894;48.452;11.494;2023-04-15T12:29:36;18.70;41.70
33564;DHT22;19894;48.452;11.494;2023-04-15T12:32:05;18.70;41.60
33564;DHT22;19894;48.452;11.494;2023-04-15T12:34:37;18.70;41.70
33564;DHT22;19894;48.452;11.494;2023-04-15T12:37:04;18.60;42.00
33564;DHT22;19894;48.452;11.494;2023-04-15T12:39:33;18.70;42.00
33564;DHT22;19894;48.452;11.494;2023-04-15T12:41:59;18.60;41.70
33564;DHT22;19894;48.452;11.494;2023-04-15T12:44:26;18.60;41.60
33564;DHT22;19894;48.452;11.494;2023-04-15T12:46:52;18.60;41.60
33564;DHT22;19894;48.452;11.494;2023-04-15T12:49:19;18.70;41.70
33564;DHT22;19894;48.452;11.494;2023-04-15T12:51:47;18.60;41.90
33564;DHT22;19894;48.452;11.494;2023-04-15T12:54:13;18.60;41.90
33564;DHT22;19894;48.452;11.494;2023-04-15T12:56:39;18.60;42.00
33564;DHT22;19894;48.452;11.494;2023-04-15T12:59:04;18.70;42.30
33564;DHT22;19894;48.452;11.494;2023-04-15T13:01:30;18.70;42.30
33564;DHT22;19894;48.452;11.494;2023-04-15T13:03:56;18.70;42.30
33564;DHT22;19894;48.452;11.494;2023-04-15T13:06:21;18.70;42.30
33564;DHT22;19894;48.452;11.494;2023-04-15T13:08:48;18.70;42.30
33564;DHT22;19894;48.452;11.494;2023-04-15T13:11:14;18.70;42.30
33564;DHT22;19894;48.452;11.494;2023-04-15T13:13:40;18.70;42.20
33564;DHT22;19894;48.452;11.494;2023-04-15T13:16:05;18.70;42.20
33564;DHT22;19894;48.452;11.494;2023-04-15T13:18:31;18.70;42.10
33564;DHT22;19894;48.452;11.494;2023-04-15T13:20:59;18.70;42.10
33564;DHT22;19894;48.452;11.494;2023-04-15T13:23:24;18.80;42.10
33564;DHT22;19894;48.452;11.494;2023-04-15T13:25:50;18.70;41.90
33564;DHT22;19894;48.452;11.494;2023-04-15T13:28:16;18.70;41.80
33564;DHT22;19894;48.452;11.494;2023-04-15T13:30:42;18.70;41.70
33564;DHT22;19894;48.452;11.494;2023-04-15T13:33:08;18.70;41.70
33564;DHT22;19894;48.452;11.494;2023-04-15T13:35:34;18.70;41.70
33564;DHT22;19894;48.452;11.494;2023-04-15T13:38:00;18.70;41.70
33564;DHT22;19894;48.452;11.494;2023-04-15T13:40:26;18.70;41.70
33564;DHT22;19894;48.452;11.494;2023-04-15T13:42:51;18.70;41.70
33564;DHT22;19894;48.452;11.494;2023-04-15T13:45:17;18.70;41.70
33564;DHT22;19894;48.452;11.494;2023-04-15T13:47:43;18.70;41.70
33564;DHT22;19894;48.452;11.494;2023-04-15T13:50:09;18.70;41.70
33564;DHT22;19894;48.452;11.494;2023-04-15T13:52:34;18.70;41.70
33564;DHT22;19894;48.452;11.494;2023-04-15T13:55:01;18.70;41.70
33564;DHT22;19894;48.452;11.494;2023-04-15T13:57:26;18.70;42.10
33564;DHT22;19894;48.452;11.494;2023-04-15T13:59:52;18.70;41.70
33564;DHT22;19894;48.452;11.494;2023-04-15T14:02:20;18.70;41.60
33564;DHT22;19894;48.452;11.494;2023-04-15T14:04:47;18.70;41.70
33564;DHT22;19894;48.452;11.494;2023-04-15T14:07:13;18.70;41.80
33564;DHT22;19894;48.452;11.494;2023-04-15T14:09:38;18.70;41.70
33564;DHT22;19894;48.452;11.494;2023-04-15T14:12:04;18.70;41.70
33564;DHT22;19894;48.452;11.494;2023-04-15T14:14:30;18.70;41.70
33564;DHT22;19894;48.452;11.494;2023-04-15T14:16:56;18.70;41.70
33564;DHT22;19894;48.452;11.494;2023-04-15T14:19:22;18.70;41.70
33564;DHT22;19894;48.452;11.494;2023-04-15T14:21:48;18.70;41.70
33564;DHT22;19894;48.452;11.494;2023-04-15T14:24:13;18.70;41.70
33564;DHT22;19894;48.452;11.494;2023-04-15T14:26:39;18.70;41.70
33564;DHT22;19894;48.452;11.494;2023-04-15T14:29:05;18.70;41.70
33564;DHT22;19894;48.452;11.494;2023-04-15T14:31:30;18.70;41.60
33564;DHT22;19894;48.452;11.494;2023-04-15T14:33:56;18.70;41.60
33564;DHT22;19894;48.452;11.494;2023-04-15T14:36:21;18.70;41.60
33564;DHT22;19894;48.452;11.494;2023-04-15T14:38:47;18.70;41.60
33564;DHT22;19894;48.452;11.494;2023-04-15T14:41:12;18.70;41.50
33564;DHT22;19894;48.452;11.494;2023-04-15T14:43:38;18.70;41.60
33564;DHT22;19894;48.452;11.494;2023-04-15T14:46:03;18.70;41.60
33564;DHT22;19894;48.452;11.494;2023-04-15T14:48:30;18.70;41.60
33564;DHT22;19894;48.452;11.494;2023-04-15T14:50:56;18.70;41.60
33564;DHT22;19894;48.452;11.494;2023-04-15T14:53:22;18.70;41.60
33564;DHT22;19894;48.452;11.494;2023-04-15T14:55:47;18.70;41.60
33564;DHT22;19894;48.452;11.494;2023-04-15T14:58:13;18.70;41.70
33564;DHT22;19894;48.452;11.494;2023-04-15T15:00:39;18.70;41.70
33564;DHT22;19894;48.452;11.494;2023-04-15T15:03:08;18.70;41.70
33564;DHT22;19894;48.452;11.494;2023-04-15T15:05:41;18.70;41.70
33564;DHT22;19894;48.452;11.494;2023-04-15T15:08:07;18.70;41.70
33564;DHT22;19894;48.452;11.494;2023-04-15T15:10:34;18.70;41.90
33564;DHT22;19894;48.452;11.494;2023-04-15T15:13:02;18.70;42.00
33564;DHT22;19894;48.452;11.494;2023-04-15T15:15:28;18.70;42.00
33564;DHT22;19894;48.452;11.494;2023-04-15T15:17:54;18.70;42.10
33564;DHT22;19894;48.452;11.494;2023-04-15T15:20:19;18.70;42.00